sensor_id;sensor_type;location;lat;lon;timestamp;temperature;humidity
12682;DHT22;6405;59.208;18.216;2023-05-07T00:02:21;-2.70;99.90
12682;DHT22;6405;59.208;18.216;2023-05-07T00:04:48;-2.70;99.90
12682;DHT22;6405;59.208;18.216;2023-05-07T00:07:14;-2.70;99.90
12682;DHT22;6405;59.208;18.216;2023-05-07T00:09:40;-2.70;99.90
12682;DHT22;6405;59.208;18.216;2023-05-07T00:12:06;-2.80;99.90
12682;DHT22;6405;59.208;18.216;2023-05-07T00:14:32;-2.80;99.90
12682;DHT22;6405;59.208;18.216;2023-05-07T00:16:57;-2.80;99.90
12682;DHT22;6405;59.208;18.216;2023-05-07T00:19:23;-2.80;99.90
12682;DHT22;6405;59.208;18.216;2023-05-07T00:21:49;-2.80;99.90
12682;DHT22;6405;59.208;18.216;2023-05-07T00:24:15;-2.80;99.90
12682;DHT22;6405;59.208;18.216;2023-05-07T00:26:40;-2.90;99.90
12682;DHT22;6405;59.208;18.216;2023-05-07T00:29:06;-2.90;99.90
12682;DHT22;6405;59.208;18.216;2023-05-07T00:31:32;-2.90;99.90
12682;DHT22;6405;59.208;18.216;2023-05-07T00:33:57;-2.90;99.90
12682;DHT22;6405;59.208;18.216;2023-05-07T00:36:23;-2.90;99.90
12682;DHT22;6405;59.208;18.216;2023-05-07T00:38:49;-2.90;99.90
12682;DHT22;6405;59.208;18.216;2023-05-07T00:41:15;-3.00;99.90
12682;DHT22;6405;59.208;18.216;2023-05-07T00:43:40;-3.00;99.90
12682;DHT22;6405;59.208;18.216;2023-05-07T00:46:06;-3.00;99.90
12682;DHT22;6405;59.208;18.216;2023-05-07T00:48:32;-3.10;99.90
12682;DHT22;6405;59.208;18.216;2023-05-07T00:50:58;-3.10;99.90
12682;DHT22;6405;59.208;18.216;2023-05-07T00:53:23;-3.10;99.90
12682;DHT22;6405;59.208;18.216;2023-05-07T00:55:50;-3.10;99.90
12682;DHT22;6405;59.208;18.216;2023-05-07T00:58:16;-3.10;99.90
12682;DHT22;6405;59.208;18.216;2023-05-07T01:00:41;-3.10;99.90
12682;DHT22;6405;59.208;18.216;2023-05-07T01:03:07;-3.20;99.90
12682;DHT22;6405;59.208;18.216;2023-05-07T01:05:33;-3.10;99.90
12682;DHT22;6405;59.208;18.216;2023-05-07T01:07:59;-3.20;99.90
12682;DHT22;6405;59.208;18.216;2023-05-07T01:10:25;-3.20;99.90
12682;DHT22;6405;59.208;18.216;2023-05-07T01:12:51;-3.30;99.90
12682;DHT22;6405;59.208;18.216;2023-05-07T01:15:19;-3.30;99.90
12682;DHT22;6405;59.208;18.216;2023-05-07T01:17:45;-3.30;99.90
12682;DHT22;6405;59.208;18.216;2023-05-07T01:20:11;-3.30;99.90
12682;DHT22;6405;59.208;18.216;2023-05-07T01:22:38;-3.30;99.90
12682;DHT22;6405;59.208;18.216;2023-05-07T01:25:05;-3.30;99.90
12682;DHT22;6405;59.208;18.216;2023-05-07T01:27:30;-3.30;99.90
12682;DHT22;6405;59.208;18.216;2023-05-07T01:29:56;-3.20;99.90
12682;DHT22;6405;59.208;18.216;2023-05-07T01:35:11;-3.30;99.90
12682;DHT22;6405;59.208;18.216;2023-05-07T01:37:38;-3.40;99.90
12682;DHT22;6405;59.208;18.216;2023-05-07T01:40:05;-3.40;99.90
12682;DHT22;6405;59.208;18.216;2023-05-07T01:42:32;-3.40;99.90
12682;DHT22;6405;59.208;18.216;2023-05-07T01:44:58;-3.40;99.90
12682;DHT22;6405;59.208;18.216;2023-05-07T01:47:25;-3.40;99.90
12682;DHT22;6405;59.208;18.216;2023-05-07T01:49:50;-3.40;99.90
12682;DHT22;6405;59.208;18.216;2023-05-07T01:52:16;-3.50;99.90
12682;DHT22;6405;59.208;18.216;2023-05-07T01:54:42;-3.50;99.90
12682;DHT22;6405;59.208;18.216;2023-05-07T01:57:08;-3.50;99.90
12682;DHT22;6405;59.208;18.216;2023-05-07T01:59:33;-3.50;99.90
12682;DHT22;6405;59.208;18.216;2023-05-07T02:01:59;-3.50;99.90
12682;DHT22;6405;59.208;18.216;2023-05-07T02:04:26;-3.50;99.90
12682;DHT22;6405;59.208;18.216;2023-05-07T02:06:51;-3.50;99.90
12682;DHT22;6405;59.208;18.216;2023-05-07T02:09:18;-3.60;99.90
12682;DHT22;6405;59.208;18.216;2023-05-07T02:11:44;-3.60;99.90
12682;DHT22;6405;59.208;18.216;2023-05-07T02:14:10;-3.60;99.90
12682;DHT22;6405;59.208;18.216;2023-05-07T02:16:36;-3.60;99.90
12682;DHT22;6405;59.208;18.216;2023-05-07T02:19:01;-3.60;99.90
12682;DHT22;6405;59.208;18.216;2023-05-07T02:21:27;-3.60;99.90
12682;DHT22;6405;59.208;18.216;2023-05-07T02:23:53;-3.70;99.90
12682;DHT22;6405;59.208;18.216;2023-05-07T02:26:18;-3.70;99.90
12682;DHT22;6405;59.208;18.216;2023-05-07T02:28:44;-3.70;99.90
12682;DHT22;6405;59.208;18.216;2023-05-07T02:31:10;-3.70;99.90
12682;DHT22;6405;59.208;18.216;2023-05-07T02:33:35;-3.70;99.90
12682;DHT22;6405;59.208;18.216;2023-05-07T02:36:09;-3.70;99.90
12682;DHT22;6405;59.208;18.216;2023-05-07T02:38:35;-3.70;99.90
12682;DHT22;6405;59.208;18.216;2023-05-07T02:41:01;-3.70;99.90
12682;DHT22;6405;59.208;18.216;2023-05-07T02:43:27;-3.70;99.90
12682;DHT22;6405;59.208;18.216;2023-05-07T02:46:07;-3.70;99.90
12682;DHT22;6405;59.208;18.216;2023-05-07T02:48:33;-3.70;99.90
12682;DHT22;6405;59.208;18.216;2023-05-07T02:50:59;-3.70;99.90
12682;DHT22;6405;59.208;18.216;2023-05-07T02:53:25;-3.70;99.90
12682;DHT22;6405;59.208;18.216;2023-05-07T02:55:56;-3.80;99.90
12682;DHT22;6405;59.208;18.216;2023-05-07T02:58:21;-3.70;99.90
12682;DHT22;6405;59.208;18.216;2023-05-07T03:00:47;-3.70;99.90
12682;DHT22;6405;59.208;18.216;2023-05-07T03:03:16;-3.70;99.90
12682;DHT22;6405;59.208;18.216;2023-05-07T03:05:41;-3.70;99.90
12682;DHT22;6405;59.208;18.216;2023-05-07T03:08:08;-3.70;99.90
12682;DHT22;6405;59.208;18.216;2023-05-07T03:10:35;-3.70;99.90
12682;DHT22;6405;59.208;18.216;2023-05-07T03:13:01;-3.70;99.90
12682;DHT22;6405;59.208;18.216;2023-05-07T03:15:26;-3.70;99.90
12682;DHT22;6405;59.208;18.216;2023-05-07T03:17:52;-3.70;99.90
12682;DHT22;6405;59.208;18.216;2023-05-07T03:20:18;-3.60;99.90
12682;DHT22;6405;59.208;18.216;2023-05-07T03:22:43;-3.60;99.90
12682;DHT22;6405;59.208;18.216;2023-05-07T03:25:09;-3.60;99.90
12682;DHT22;6405;59.208;18.216;2023-05-07T03:27:35;-3.60;99.90
12682;DHT22;6405;59.208;18.216;2023-05-07T03:30:01;-3.60;99.90
12682;DHT22;6405;59.208;18.216;2023-05-07T03:32:27;-3.50;99.90
12682;DHT22;6405;59.208;18.216;2023-05-07T03:34:52;-3.50;99.90
12682;DHT22;6405;59.208;18.216;2023-05-07T03:37:18;-3.50;99.90
12682;DHT22;6405;59.208;18.216;2023-05-07T03:39:44;-3.50;99.90
12682;DHT22;6405;59.208;18.216;2023-05-07T03:42:10;-3.40;99.90
12682;DHT22;6405;59.208;18.216;2023-05-07T03:44:35;-3.40;99.90
12682;DHT22;6405;59.208;18.216;2023-05-07T03:47:02;-3.40;99.90
12682;DHT22;6405;59.208;18.216;2023-05-07T03:49:28;-3.30;99.90
12682;DHT22;6405;59.208;18.216;2023-05-07T03:51:53;-3.30;99.90
12682;DHT22;6405;59.208;18.216;2023-05-07T03:54:19;-3.20;99.90
12682;DHT22;6405;59.208;18.216;2023-05-07T03:56:44;-3.20;99.90
12682;DHT22;6405;59.208;18.216;2023-05-07T03:59:10;-3.20;99.90
12682;DHT22;6405;59.208;18.216;2023-05-07T04:01:36;-3.10;99.90
12682;DHT22;6405;59.208;18.216;2023-05-07T04:04:01;-3.10;99.90
12682;DHT22;6405;59.208;18.216;2023-05-07T04:06:28;-3.00;99.90
12682;DHT22;6405;59.208;18.216;2023-05-07T04:08:54;-3.00;99.90
12682;DHT22;6405;59.208;18.216;2023-05-07T04:11:19;-2.90;99.90
12682;DHT22;6405;59.208;18.216;2023-05-07T04:13:45;-2.90;99.90
12682;DHT22;6405;59.208;18.216;2023-05-07T04:16:11;-2.80;99.90
12682;DHT22;6405;59.208;18.216;2023-05-07T04:18:37;-2.80;99.90
12682;DHT22;6405;59.208;18.216;2023-05-07T04:21:02;-2.70;99.90
12682;DHT22;6405;59.208;18.216;2023-05-07T04:23:28;-2.70;99.90
12682;DHT22;6405;59.208;18.216;2023-05-07T04:25:53;-2.60;99.90
12682;DHT22;6405;59.208;18.216;2023-05-07T04:28:20;-2.60;99.90
12682;DHT22;6405;59.208;18.216;2023-05-07T04:30:46;-2.50;99.90
12682;DHT22;6405;59.208;18.216;2023-05-07T04:33:11;-2.40;99.90
12682;DHT22;6405;59.208;18.216;2023-05-07T04:35:37;-2.40;99.90
12682;DHT22;6405;59.208;18.216;2023-05-07T04:38:03;-2.30;99.90
12682;DHT22;6405;59.208;18.216;2023-05-07T04:40:29;-2.20;99.90
12682;DHT22;6405;59.208;18.216;2023-05-07T04:42:55;-2.20;99.90
12682;DHT22;6405;59.208;18.216;2023-05-07T04:45:21;-2.10;99.90
12682;DHT22;6405;59.208;18.216;2023-05-07T04:47:46;-2.00;99.90
12682;DHT22;6405;59.208;18.216;2023-05-07T04:50:12;-1.90;99.90
12682;DHT22;6405;59.208;18.216;2023-05-07T04:52:37;-1.80;99.90
12682;DHT22;6405;59.208;18.216;2023-05-07T04:55:03;-1.60;99.90
12682;DHT22;6405;59.208;18.216;2023-05-07T04:57:29;-1.50;99.90
12682;DHT22;6405;59.208;18.216;2023-05-07T04:59:55;-1.50;99.90
12682;DHT22;6405;59.208;18.216;2023-05-07T05:02:21;-1.30;99.90
12682;DHT22;6405;59.208;18.216;2023-05-07T05:04:46;-1.10;99.90
12682;DHT22;6405;59.208;18.216;2023-05-07T05:07:12;-1.10;99.90
12682;DHT22;6405;59.208;18.216;2023-05-07T05:09:38;-1.00;99.90
12682;DHT22;6405;59.208;18.216;2023-05-07T05:12:04;-0.80;99.90
12682;DHT22;6405;59.208;18.216;2023-05-07T05:14:32;-0.70;99.90
12682;DHT22;6405;59.208;18.216;2023-05-07T05:16:58;-0.60;99.90
12682;DHT22;6405;59.208;18.216;2023-05-07T05:19:23;-0.30;99.90
12682;DHT22;6405;59.208;18.216;2023-05-07T05:21:49;-0.20;99.90
12682;DHT22;6405;59.208;18.216;2023-05-07T05:24:15;0.10;99.90
12682;DHT22;6405;59.208;18.216;2023-05-07T05:26:40;0.20;99.90
12682;DHT22;6405;59.208;18.216;2023-05-07T05:29:06;0.40;99.90
12682;DHT22;6405;59.208;18.216;2023-05-07T05:31:33;0.50;99.90
12682;DHT22;6405;59.208;18.216;2023-05-07T05:33:59;0.70;99.90
12682;DHT22;6405;59.208;18.216;2023-05-07T05:36:25;0.80;99.90
12682;DHT22;6405;59.208;18.216;2023-05-07T05:38:51;0.90;99.90
12682;DHT22;6405;59.208;18.216;2023-05-07T05:41:16;1.20;99.90
12682;DHT22;6405;59.208;18.216;2023-05-07T05:43:42;1.30;99.90
12682;DHT22;6405;59.208;18.216;2023-05-07T05:46:08;1.60;99.90
12682;DHT22;6405;59.208;18.216;2023-05-07T05:48:36;1.70;99.90
12682;DHT22;6405;59.208;18.216;2023-05-07T05:51:02;1.90;99.90
12682;DHT22;6405;59.208;18.216;2023-05-07T05:53:27;2.00;99.90
12682;DHT22;6405;59.208;18.216;2023-05-07T05:55:53;2.10;99.90
12682;DHT22;6405;59.208;18.216;2023-05-07T05:58:18;2.20;99.90
12682;DHT22;6405;59.208;18.216;2023-05-07T06:00:45;2.40;99.90
12682;DHT22;6405;59.208;18.216;2023-05-07T06:03:11;2.40;99.90
12682;DHT22;6405;59.208;18.216;2023-05-07T06:05:37;2.50;99.90
12682;DHT22;6405;59.208;18.216;2023-05-07T06:08:02;2.60;99.90
12682;DHT22;6405;59.208;18.216;2023-05-07T06:10:28;2.60;99.90
12682;DHT22;6405;59.208;18.216;2023-05-07T06:12:55;2.70;99.90
12682;DHT22;6405;59.208;18.216;2023-05-07T06:15:21;2.80;99.90
12682;DHT22;6405;59.208;18.216;2023-05-07T06:17:47;3.00;99.90
12682;DHT22;6405;59.208;18.216;2023-05-07T06:20:12;3.00;99.90
12682;DHT22;6405;59.208;18.216;2023-05-07T06:22:38;3.10;99.90
12682;DHT22;6405;59.208;18.216;2023-05-07T06:25:04;3.20;99.90
12682;DHT22;6405;59.208;18.216;2023-05-07T06:27:30;3.30;99.90
12682;DHT22;6405;59.208;18.216;2023-05-07T06:29:56;3.40;99.90
12682;DHT22;6405;59.208;18.216;2023-05-07T06:32:21;3.40;99.90
12682;DHT22;6405;59.208;18.216;2023-05-07T06:34:47;3.60;99.90
12682;DHT22;6405;59.208;18.216;2023-05-07T06:37:13;3.70;99.90
12682;DHT22;6405;59.208;18.216;2023-05-07T06:39:38;3.80;99.90
12682;DHT22;6405;59.208;18.216;2023-05-07T06:42:04;3.90;99.90
12682;DHT22;6405;59.208;18.216;2023-05-07T06:44:30;3.90;99.90
12682;DHT22;6405;59.208;18.216;2023-05-07T06:46:56;4.00;99.90
12682;DHT22;6405;59.208;18.216;2023-05-07T06:49:22;4.00;99.90
12682;DHT22;6405;59.208;18.216;2023-05-07T06:51:48;4.00;99.90
12682;DHT22;6405;59.208;18.216;2023-05-07T06:54:13;4.10;99.90
12682;DHT22;6405;59.208;18.216;2023-05-07T06:56:39;4.20;99.90
12682;DHT22;6405;59.208;18.216;2023-05-07T06:59:05;4.30;99.90
12682;DHT22;6405;59.208;18.216;2023-05-07T07:01:31;4.40;99.90
12682;DHT22;6405;59.208;18.216;2023-05-07T07:03:57;4.60;99.90
12682;DHT22;6405;59.208;18.216;2023-05-07T07:06:23;4.60;99.90
12682;DHT22;6405;59.208;18.216;2023-05-07T07:08:48;4.70;99.90
12682;DHT22;6405;59.208;18.216;2023-05-07T07:11:15;4.80;99.90
12682;DHT22;6405;59.208;18.216;2023-05-07T07:13:41;4.90;99.90
12682;DHT22;6405;59.208;18.216;2023-05-07T07:16:06;4.90;99.90
12682;DHT22;6405;59.208;18.216;2023-05-07T07:18:32;5.00;99.90
12682;DHT22;6405;59.208;18.216;2023-05-07T07:20:58;5.00;99.90
12682;DHT22;6405;59.208;18.216;2023-05-07T07:23:24;5.00;99.90
12682;DHT22;6405;59.208;18.216;2023-05-07T07:25:50;5.10;99.90
12682;DHT22;6405;59.208;18.216;2023-05-07T07:28:16;5.10;99.90
12682;DHT22;6405;59.208;18.216;2023-05-07T07:30:42;5.30;99.90
12682;DHT22;6405;59.208;18.216;2023-05-07T07:33:07;5.40;99.90
12682;DHT22;6405;59.208;18.216;2023-05-07T07:35:33;5.40;99.90
12682;DHT22;6405;59.208;18.216;2023-05-07T07:37:59;5.50;99.90
12682;DHT22;6405;59.208;18.216;2023-05-07T07:40:25;5.50;99.90
12682;DHT22;6405;59.208;18.216;2023-05-07T07:42:54;5.60;99.90
12682;DHT22;6405;59.208;18.216;2023-05-07T07:45:20;5.80;99.90
12682;DHT22;6405;59.208;18.216;2023-05-07T07:47:46;5.90;99.90
12682;DHT22;6405;59.208;18.216;2023-05-07T07:50:12;6.00;99.90
12682;DHT22;6405;59.208;18.216;2023-05-07T07:52:37;6.10;99.90
12682;DHT22;6405;59.208;18.216;2023-05-07T07:55:03;6.30;99.90
12682;DHT22;6405;59.208;18.216;2023-05-07T07:57:30;6.40;99.90
12682;DHT22;6405;59.208;18.216;2023-05-07T07:59:55;6.50;99.90
12682;DHT22;6405;59.208;18.216;2023-05-07T08:02:21;6.70;99.90
12682;DHT22;6405;59.208;18.216;2023-05-07T08:04:46;6.80;99.90
12682;DHT22;6405;59.208;18.216;2023-05-07T08:07:12;6.90;99.90
12682;DHT22;6405;59.208;18.216;2023-05-07T08:09:38;7.20;99.90
12682;DHT22;6405;59.208;18.216;2023-05-07T08:12:05;7.40;99.90
12682;DHT22;6405;59.208;18.216;2023-05-07T08:14:31;7.60;99.90
12682;DHT22;6405;59.208;18.216;2023-05-07T08:16:57;7.80;99.90
12682;DHT22;6405;59.208;18.216;2023-05-07T08:19:22;7.90;99.90
12682;DHT22;6405;59.208;18.216;2023-05-07T08:21:48;8.40;99.90
12682;DHT22;6405;59.208;18.216;2023-05-07T08:24:14;8.60;99.90
12682;DHT22;6405;59.208;18.216;2023-05-07T08:26:40;8.80;99.90
12682;DHT22;6405;59.208;18.216;2023-05-07T08:29:07;9.10;99.90
12682;DHT22;6405;59.208;18.216;2023-05-07T08:31:33;9.30;99.90
12682;DHT22;6405;59.208;18.216;2023-05-07T08:33:59;9.40;99.90
12682;DHT22;6405;59.208;18.216;2023-05-07T08:36:25;9.50;99.90
12682;DHT22;6405;59.208;18.216;2023-05-07T08:38:51;9.80;99.90
12682;DHT22;6405;59.208;18.216;2023-05-07T08:41:17;9.80;99.90
12682;DHT22;6405;59.208;18.216;2023-05-07T08:43:47;9.90;99.90
12682;DHT22;6405;59.208;18.216;2023-05-07T08:46:17;9.90;99.90
12682;DHT22;6405;59.208;18.216;2023-05-07T08:48:44;10.10;99.90
12682;DHT22;6405;59.208;18.216;2023-05-07T08:51:14;10.30;99.90
12682;DHT22;6405;59.208;18.216;2023-05-07T08:53:41;10.40;99.90
12682;DHT22;6405;59.208;18.216;2023-05-07T08:56:08;10.50;99.90
12682;DHT22;6405;59.208;18.216;2023-05-07T08:58:34;10.40;99.90
12682;DHT22;6405;59.208;18.216;2023-05-07T09:01:15;10.50;99.90
12682;DHT22;6405;59.208;18.216;2023-05-07T09:03:43;10.50;99.90
12682;DHT22;6405;59.208;18.216;2023-05-07T09:06:09;10.60;99.90
12682;DHT22;6405;59.208;18.216;2023-05-07T09:08:35;10.60;99.90
12682;DHT22;6405;59.208;18.216;2023-05-07T09:11:01;10.50;99.90
12682;DHT22;6405;59.208;18.216;2023-05-07T09:13:27;10.50;99.90
12682;DHT22;6405;59.208;18.216;2023-05-07T09:15:53;10.40;99.90
12682;DHT22;6405;59.208;18.216;2023-05-07T09:18:19;10.20;99.90
12682;DHT22;6405;59.208;18.216;2023-05-07T09:20:44;10.20;99.90
12682;DHT22;6405;59.208;18.216;2023-05-07T09:23:10;10.10;99.90
12682;DHT22;6405;59.208;18.216;2023-05-07T09:25:36;10.10;99.90
12682;DHT22;6405;59.208;18.216;2023-05-07T09:28:03;9.80;99.90
12682;DHT22;6405;59.208;18.216;2023-05-07T09:30:33;9.90;99.90
12682;DHT22;6405;59.208;18.216;2023-05-07T09:33:01;9.90;99.90
12682;DHT22;6405;59.208;18.216;2023-05-07T09:35:27;10.00;99.90
12682;DHT22;6405;59.208;18.216;2023-05-07T09:37:55;9.90;99.90
12682;DHT22;6405;59.208;18.216;2023-05-07T09:40:26;10.00;99.90
12682;DHT22;6405;59.208;18.216;2023-05-07T09:42:52;10.10;99.90
12682;DHT22;6405;59.208;18.216;2023-05-07T09:45:30;10.20;99.90
12682;DHT22;6405;59.208;18.216;2023-05-07T09:47:57;10.00;99.90
12682;DHT22;6405;59.208;18.216;2023-05-07T09:50:28;9.90;99.90
12682;DHT22;6405;59.208;18.216;2023-05-07T09:52:55;10.00;99.90
12682;DHT22;6405;59.208;18.216;2023-05-07T09:55:22;9.70;99.90
12682;DHT22;6405;59.208;18.216;2023-05-07T09:57:52;9.90;99.90
12682;DHT22;6405;59.208;18.216;2023-05-07T10:00:22;9.90;99.90
12682;DHT22;6405;59.208;18.216;2023-05-07T10:02:49;10.10;99.90
12682;DHT22;6405;59.208;18.216;2023-05-07T10:05:18;10.30;99.90
12682;DHT22;6405;59.208;18.216;2023-05-07T10:07:45;10.30;99.90
12682;DHT22;6405;59.208;18.216;2023-05-07T10:10:10;10.50;99.90
12682;DHT22;6405;59.208;18.216;2023-05-07T10:12:36;10.70;99.90
12682;DHT22;6405;59.208;18.216;2023-05-07T10:15:08;10.50;99.90
12682;DHT22;6405;59.208;18.216;2023-05-07T10:17:38;10.60;99.90
12682;DHT22;6405;59.208;18.216;2023-05-07T10:20:05;10.70;99.90
12682;DHT22;6405;59.208;18.216;2023-05-07T10:22:40;10.90;99.90
12682;DHT22;6405;59.208;18.216;2023-05-07T10:25:15;11.00;99.90
12682;DHT22;6405;59.208;18.216;2023-05-07T10:27:43;11.20;99.90
12682;DHT22;6405;59.208;18.216;2023-05-07T10:32:54;11.10;99.90
12682;DHT22;6405;59.208;18.216;2023-05-07T10:35:26;11.00;99.90
12682;DHT22;6405;59.208;18.216;2023-05-07T10:37:52;11.00;99.90
12682;DHT22;6405;59.208;18.216;2023-05-07T10:40:20;11.20;99.90
12682;DHT22;6405;59.208;18.216;2023-05-07T10:45:22;11.10;99.90
12682;DHT22;6405;59.208;18.216;2023-05-07T10:48:13;11.10;99.90
12682;DHT22;6405;59.208;18.216;2023-05-07T10:50:43;11.20;99.90
12682;DHT22;6405;59.208;18.216;2023-05-07T10:58:28;11.50;99.90
12682;DHT22;6405;59.208;18.216;2023-05-07T11:00:58;11.30;99.90
12682;DHT22;6405;59.208;18.216;2023-05-07T11:03:25;11.50;99.90
12682;DHT22;6405;59.208;18.216;2023-05-07T11:06:09;11.30;99.90
12682;DHT22;6405;59.208;18.216;2023-05-07T11:08:55;11.30;99.90
12682;DHT22;6405;59.208;18.216;2023-05-07T11:11:47;11.30;99.90
12682;DHT22;6405;59.208;18.216;2023-05-07T11:14:14;11.50;99.90
12682;DHT22;6405;59.208;18.216;2023-05-07T11:16:41;11.50;99.90
12682;DHT22;6405;59.208;18.216;2023-05-07T11:19:08;11.50;99.90
12682;DHT22;6405;59.208;18.216;2023-05-07T11:24:04;11.50;99.90
12682;DHT22;6405;59.208;18.216;2023-05-07T11:26:41;11.50;99.90
12682;DHT22;6405;59.208;18.216;2023-05-07T11:29:17;11.40;99.90
12682;DHT22;6405;59.208;18.216;2023-05-07T11:31:48;11.50;99.90
12682;DHT22;6405;59.208;18.216;2023-05-07T11:34:15;11.60;99.90
12682;DHT22;6405;59.208;18.216;2023-05-07T11:36:46;11.70;99.90
12682;DHT22;6405;59.208;18.216;2023-05-07T11:39:44;11.90;99.90
12682;DHT22;6405;59.208;18.216;2023-05-07T11:42:33;11.80;99.90
12682;DHT22;6405;59.208;18.216;2023-05-07T11:44:59;11.90;99.90
12682;DHT22;6405;59.208;18.216;2023-05-07T11:47:25;11.80;99.90
12682;DHT22;6405;59.208;18.216;2023-05-07T11:49:52;11.70;99.90
12682;DHT22;6405;59.208;18.216;2023-05-07T11:52:20;11.70;99.90
12682;DHT22;6405;59.208;18.216;2023-05-07T11:54:50;11.50;99.90
12682;DHT22;6405;59.208;18.216;2023-05-07T11:57:15;11.70;99.90
12682;DHT22;6405;59.208;18.216;2023-05-07T11:59:41;11.60;99.90
12682;DHT22;6405;59.208;18.216;2023-05-07T12:02:09;11.80;99.90
12682;DHT22;6405;59.208;18.216;2023-05-07T12:04:35;12.00;99.90
12682;DHT22;6405;59.208;18.216;2023-05-07T12:07:01;11.80;99.90
12682;DHT22;6405;59.208;18.216;2023-05-07T12:09:27;11.80;99.90
12682;DHT22;6405;59.208;18.216;2023-05-07T12:11:52;11.80;99.90
12682;DHT22;6405;59.208;18.216;2023-05-07T12:14:19;11.90;99.90
12682;DHT22;6405;59.208;18.216;2023-05-07T12:16:45;12.00;99.90
12682;DHT22;6405;59.208;18.216;2023-05-07T12:19:11;11.60;99.90
12682;DHT22;6405;59.208;18.216;2023-05-07T12:21:40;12.00;99.90
12682;DHT22;6405;59.208;18.216;2023-05-07T12:24:07;12.00;99.90
12682;DHT22;6405;59.208;18.216;2023-05-07T12:26:37;11.70;99.90
12682;DHT22;6405;59.208;18.216;2023-05-07T12:29:03;11.70;99.90
12682;DHT22;6405;59.208;18.216;2023-05-07T12:31:29;11.50;99.90
12682;DHT22;6405;59.208;18.216;2023-05-07T12:33:55;11.90;99.90
12682;DHT22;6405;59.208;18.216;2023-05-07T12:36:20;11.60;99.90
12682;DHT22;6405;59.208;18.216;2023-05-07T12:38:49;11.50;99.90
12682;DHT22;6405;59.208;18.216;2023-05-07T12:41:15;11.80;99.90
12682;DHT22;6405;59.208;18.216;2023-05-07T12:43:44;11.80;99.90
12682;DHT22;6405;59.208;18.216;2023-05-07T12:46:11;11.90;99.90
12682;DHT22;6405;59.208;18.216;2023-05-07T12:48:43;12.00;99.90
12682;DHT22;6405;59.208;18.216;2023-05-07T12:51:11;12.00;99.90
12682;DHT22;6405;59.208;18.216;2023-05-07T12:53:42;12.10;99.90
12682;DHT22;6405;59.208;18.216;2023-05-07T12:56:08;12.40;99.90
12682;DHT22;6405;59.208;18.216;2023-05-07T12:58:35;12.20;99.90
12682;DHT22;6405;59.208;18.216;2023-05-07T13:01:05;12.20;99.90
12682;DHT22;6405;59.208;18.216;2023-05-07T13:03:35;12.20;99.90
12682;DHT22;6405;59.208;18.216;2023-05-07T13:06:09;12.20;99.90
12682;DHT22;6405;59.208;18.216;2023-05-07T13:08:40;12.30;99.90
12682;DHT22;6405;59.208;18.216;2023-05-07T13:11:07;12.20;99.90
12682;DHT22;6405;59.208;18.216;2023-05-07T13:13:34;12.30;99.90
12682;DHT22;6405;59.208;18.216;2023-05-07T13:16:01;12.20;99.90
12682;DHT22;6405;59.208;18.216;2023-05-07T13:18:28;12.20;99.90
12682;DHT22;6405;59.208;18.216;2023-05-07T13:20:54;12.20;99.90
12682;DHT22;6405;59.208;18.216;2023-05-07T13:23:20;12.10;99.90
12682;DHT22;6405;59.208;18.216;2023-05-07T13:25:46;12.00;99.90
12682;DHT22;6405;59.208;18.216;2023-05-07T13:28:12;11.90;99.90
12682;DHT22;6405;59.208;18.216;2023-05-07T13:30:37;11.80;99.90
12682;DHT22;6405;59.208;18.216;2023-05-07T13:33:03;11.90;99.90
12682;DHT22;6405;59.208;18.216;2023-05-07T13:35:29;11.80;99.90
12682;DHT22;6405;59.208;18.216;2023-05-07T13:37:55;11.80;99.90
12682;DHT22;6405;59.208;18.216;2023-05-07T13:40:22;11.40;99.90
12682;DHT22;6405;59.208;18.216;2023-05-07T13:42:48;11.60;99.90
12682;DHT22;6405;59.208;18.216;2023-05-07T13:45:14;11.80;99.90
12682;DHT22;6405;59.208;18.216;2023-05-07T13:47:43;11.90;99.90
12682;DHT22;6405;59.208;18.216;2023-05-07T13:50:10;11.70;99.90
12682;DHT22;6405;59.208;18.216;2023-05-07T13:52:37;11.80;99.90
12682;DHT22;6405;59.208;18.216;2023-05-07T13:55:03;11.90;99.90
12682;DHT22;6405;59.208;18.216;2023-05-07T13:57:29;11.80;99.90
12682;DHT22;6405;59.208;18.216;2023-05-07T13:59:55;11.90;99.90
12682;DHT22;6405;59.208;18.216;2023-05-07T14:02:21;12.10;99.90
12682;DHT22;6405;59.208;18.216;2023-05-07T14:04:46;12.30;99.90
12682;DHT22;6405;59.208;18.216;2023-05-07T14:07:12;12.20;99.90
12682;DHT22;6405;59.208;18.216;2023-05-07T14:09:37;12.10;99.90
12682;DHT22;6405;59.208;18.216;2023-05-07T14:12:03;12.20;99.90
12682;DHT22;6405;59.208;18.216;2023-05-07T14:14:29;12.10;99.90
12682;DHT22;6405;59.208;18.216;2023-05-07T14:16:55;11.70;99.90
12682;DHT22;6405;59.208;18.216;2023-05-07T14:19:20;12.00;99.90
12682;DHT22;6405;59.208;18.216;2023-05-07T14:21:48;11.90;99.90
12682;DHT22;6405;59.208;18.216;2023-05-07T14:24:14;11.90;99.90
12682;DHT22;6405;59.208;18.216;2023-05-07T14:26:39;11.90;99.90
12682;DHT22;6405;59.208;18.216;2023-05-07T14:29:05;11.70;99.90
12682;DHT22;6405;59.208;18.216;2023-05-07T14:31:30;11.50;99.90
12682;DHT22;6405;59.208;18.216;2023-05-07T14:33:56;11.50;99.90
12682;DHT22;6405;59.208;18.216;2023-05-07T14:36:23;11.40;99.90
12682;DHT22;6405;59.208;18.216;2023-05-07T14:38:52;11.40;99.90
12682;DHT22;6405;59.208;18.216;2023-05-07T14:41:19;11.50;99.90
12682;DHT22;6405;59.208;18.216;2023-05-07T14:43:46;11.50;99.90
12682;DHT22;6405;59.208;18.216;2023-05-07T14:46:18;11.50;99.90
12682;DHT22;6405;59.208;18.216;2023-05-07T14:48:44;11.50;99.90
12682;DHT22;6405;59.208;18.216;2023-05-07T14:51:11;11.60;99.90
12682;DHT22;6405;59.208;18.216;2023-05-07T14:53:37;11.30;99.90
12682;DHT22;6405;59.208;18.216;2023-05-07T14:56:03;11.40;99.90
12682;DHT22;6405;59.208;18.216;2023-05-07T14:58:29;11.70;99.90
12682;DHT22;6405;59.208;18.216;2023-05-07T15:00:55;11.70;99.90
12682;DHT22;6405;59.208;18.216;2023-05-07T15:03:21;11.70;99.90
12682;DHT22;6405;59.208;18.216;2023-05-07T15:05:47;11.70;99.90
12682;DHT22;6405;59.208;18.216;2023-05-07T15:08:12;11.80;99.90
12682;DHT22;6405;59.208;18.216;2023-05-07T15:10:38;11.80;99.90
12682;DHT22;6405;59.208;18.216;2023-05-07T15:13:10;11.60;99.90
12682;DHT22;6405;59.208;18.216;2023-05-07T15:15:36;11.40;99.90
12682;DHT22;6405;59.208;18.216;2023-05-07T15:18:03;11.30;99.90
12682;DHT22;6405;59.208;18.216;2023-05-07T15:20:29;10.90;99.90
12682;DHT22;6405;59.208;18.216;2023-05-07T15:22:55;10.70;99.90
12682;DHT22;6405;59.208;18.216;2023-05-07T15:25:21;10.30;99.90
12682;DHT22;6405;59.208;18.216;2023-05-07T15:27:47;10.20;99.90
12682;DHT22;6405;59.208;18.216;2023-05-07T15:30:13;10.00;99.90
12682;DHT22;6405;59.208;18.216;2023-05-07T15:32:40;10.00;99.90
12682;DHT22;6405;59.208;18.216;2023-05-07T15:35:06;10.00;99.90
12682;DHT22;6405;59.208;18.216;2023-05-07T15:37:32;10.00;99.90
12682;DHT22;6405;59.208;18.216;2023-05-07T15:39:58;9.70;99.90
12682;DHT22;6405;59.208;18.216;2023-05-07T15:42:23;9.60;99.90
12682;DHT22;6405;59.208;18.216;2023-05-07T15:44:49;9.60;99.90
12682;DHT22;6405;59.208;18.216;2023-05-07T15:47:15;9.50;99.90
12682;DHT22;6405;59.208;18.216;2023-05-07T15:49:41;9.40;99.90